Elissa — WDD9058 — position and weather

sailwx.info

Track history (hours):
 
Tides and Currents Weather Stations Pressure Air Temp Water Temp Dewpoint Dewpoint Depression Visibility Wind Speed Wind Dir Waves Ship Positions

Elissa

More information available from US FCC via Universal Licensing System and Coast Guard Vessel Documentation Center.

Last reported at 2014-Sep-17 04:33 UTC. Time now 2014-Sep-17 05:30 UTC.
Position N 29°56' W 090°22'.

Length 26 m; draft 3.6 m.

Type: Towing. MMSI: 367306290.

Date/timePositionNaut miles runAvg speedWind from/ knotsBaromVisibWave heightAir tempDewpointWater temp
2014-Sep-17 04:33N 29°56' W 090°22'7 5.4
2014-Sep-17 03:11N 29°57' W 090°13'4 1.1
2014-Sep-16 23:26N 29°57' W 090°18'6 6.3
2014-Sep-16 22:33N 29°59' W 090°24'7 2.1
2014-Sep-16 19:21N 30°03' W 090°31'4 4.8
2014-Sep-16 18:33N 30°03' W 090°35'14 2.2
2014-Sep-16 12:26N 30°04' W 090°51'5 0.2
2014-Sep-15 08:30N 29°60' W 090°48'5 5.3
2014-Sep-15 07:33N 30°01' W 090°42'5 4.7
2014-Sep-15 06:33N 30°02' W 090°37'5 5.2
2014-Sep-15 05:33N 30°03' W 090°31'3 2.6
2014-Sep-15 04:33N 30°02' W 090°28'3 3.2
2014-Sep-15 03:33N 29°60' W 090°26'1 1.3
2014-Sep-15 02:33N 29°59' W 090°24'3 0.7
2014-Sep-14 21:33N 29°56' W 090°22'4 4.4
2014-Sep-14 20:33N 29°59' W 090°25'2 2.2
2014-Sep-14 19:33N 29°60' W 090°28'6 5.9
2014-Sep-14 18:33N 30°03' W 090°34'7 6.6
2014-Sep-14 17:33N 30°02' W 090°41'8 0.2
2014-Sep-13 04:33N 30°02' W 090°50'3 2.5
2014-Sep-13 03:22N 29°60' W 090°48'3 3.7
2014-Sep-13 02:32N 30°01' W 090°44'7 3.7
2014-Sep-13 00:33N 30°02' W 090°36'4 4.0
2014-Sep-12 23:33N 30°03' W 090°32'0 0.1
2014-Sep-12 22:33N 30°03' W 090°31'0 0.0
2014-Sep-12 21:33N 30°03' W 090°31'13 0.8
2014-Sep-12 05:12N 29°57' W 090°19'4 5.9
2014-Sep-12 04:32N 29°57' W 090°23'3 3.3
2014-Sep-12 03:33N 29°60' W 090°25'0 0.0
2014-Sep-12 02:33N 29°60' W 090°25'0 0.2
2014-Sep-12 01:33N 29°60' W 090°25'3 3.0
2014-Sep-12 00:33N 30°01' W 090°28'3 2.7
2014-Sep-11 23:33N 30°03' W 090°31'1 1.2
2014-Sep-11 22:33N 30°03' W 090°32'5 5.1
2014-Sep-11 21:31N 30°03' W 090°38'12 0.4
2014-Sep-10 12:32N 30°04' W 090°52'6 5.7
2014-Sep-10 11:33N 29°59' W 090°49'6 6.3
2014-Sep-10 10:33N 30°01' W 090°42'6 5.7
2014-Sep-10 09:33N 30°03' W 090°36'6 6.1
2014-Sep-10 08:33N 30°02' W 090°29'4 4.3
2014-Sep-10 07:33N 29°59' W 090°25'0 0.2
2014-Sep-10 06:33N 29°59' W 090°25'3 2.9
2014-Sep-10 05:33N 29°57' W 090°23'5 5.1
2014-Sep-10 04:30N 29°58' W 090°17'5 5.0
2014-Sep-10 03:32N 29°55' W 090°12'16 1.4
2014-Sep-09 16:03N 30°03' W 090°29'3 6.1
2014-Sep-09 15:33N 30°03' W 090°32'17 3.4
2014-Sep-09 10:33N 30°04' W 090°52'6 0.2
2014-Sep-08 11:15N 30°08' W 090°56'11 3.0
2014-Sep-08 07:33N 29°59' W 090°49'4 3.8
2014-Sep-08 06:33N 30°01' W 090°45'4 3.8
2014-Sep-08 05:33N 30°02' W 090°41'4 3.6
2014-Sep-08 04:33N 30°02' W 090°37'4 3.7
2014-Sep-08 03:33N 30°03' W 090°33'2 2.4
2014-Sep-08 02:33N 30°03' W 090°30'3 2.5
2014-Sep-08 01:33N 30°01' W 090°28'3 2.8
2014-Sep-08 00:33N 29°60' W 090°26'1 0.5
2014-Sep-07 23:33N 29°59' W 090°25'0 0.1
2014-Sep-07 22:33N 29°59' W 090°25'2 1.6
2014-Sep-07 21:33N 29°58' W 090°24'4 4.2
2014-Sep-07 20:33N 29°56' W 090°20'1 0.2
2014-Sep-07 15:04N 29°57' W 090°19'4 7.6
2014-Sep-07 14:32N 29°57' W 090°23'3 3.2
2014-Sep-07 13:33N 29°59' W 090°25'4 4.1
2014-Sep-07 12:33N 30°02' W 090°28'6 6.4
2014-Sep-07 11:33N 30°03' W 090°36'6 5.7
2014-Sep-07 10:33N 30°02' W 090°42'6 5.6
2014-Sep-07 09:33N 29°59' W 090°48'5 5.2
2014-Sep-07 08:33N 30°04' W 090°52'6 4.6
2014-Sep-07 07:08N 30°07' W 090°58'3 3.1
2014-Sep-07 06:09N 30°07' W 091°02'  
Track history (hours):
 
Tides and Currents Weather Stations Pressure Air Temp Water Temp Dewpoint Dewpoint Depression Visibility Wind Speed Wind Dir Waves Ship Positions

Elissa

More information available from US FCC via Universal Licensing System and Coast Guard Vessel Documentation Center.

Last reported at 2014-Sep-17 04:33 UTC. Time now 2014-Sep-17 05:30 UTC.
Position N 29°56' W 090°22'.

Length 26 m; draft 3.6 m.

Type: Towing. MMSI: 367306290.

Date/timePositionNaut miles runAvg speedWind from/ knotsBaromVisibWave heightAir tempDewpointWater temp
2014-Sep-17 04:33N 29°56' W 090°22'7 5.4
2014-Sep-17 03:11N 29°57' W 090°13'4 1.1
2014-Sep-16 23:26N 29°57' W 090°18'6 6.3
2014-Sep-16 22:33N 29°59' W 090°24'7 2.1
2014-Sep-16 19:21N 30°03' W 090°31'4 4.8
2014-Sep-16 18:33N 30°03' W 090°35'14 2.2
2014-Sep-16 12:26N 30°04' W 090°51'5 0.2
2014-Sep-15 08:30N 29°60' W 090°48'5 5.3
2014-Sep-15 07:33N 30°01' W 090°42'5 4.7
2014-Sep-15 06:33N 30°02' W 090°37'5 5.2
2014-Sep-15 05:33N 30°03' W 090°31'3 2.6
2014-Sep-15 04:33N 30°02' W 090°28'3 3.2
2014-Sep-15 03:33N 29°60' W 090°26'1 1.3
2014-Sep-15 02:33N 29°59' W 090°24'3 0.7
2014-Sep-14 21:33N 29°56' W 090°22'4 4.4
2014-Sep-14 20:33N 29°59' W 090°25'2 2.2
2014-Sep-14 19:33N 29°60' W 090°28'6 5.9
2014-Sep-14 18:33N 30°03' W 090°34'7 6.6
2014-Sep-14 17:33N 30°02' W 090°41'8 0.2
2014-Sep-13 04:33N 30°02' W 090°50'3 2.5
2014-Sep-13 03:22N 29°60' W 090°48'3 3.7
2014-Sep-13 02:32N 30°01' W 090°44'7 3.7
2014-Sep-13 00:33N 30°02' W 090°36'4 4.0
2014-Sep-12 23:33N 30°03' W 090°32'0 0.1
2014-Sep-12 22:33N 30°03' W 090°31'0 0.0
2014-Sep-12 21:33N 30°03' W 090°31'13 0.8
2014-Sep-12 05:12N 29°57' W 090°19'4 5.9
2014-Sep-12 04:32N 29°57' W 090°23'3 3.3
2014-Sep-12 03:33N 29°60' W 090°25'0 0.0
2014-Sep-12 02:33N 29°60' W 090°25'0 0.2
2014-Sep-12 01:33N 29°60' W 090°25'3 3.0
2014-Sep-12 00:33N 30°01' W 090°28'3 2.7
2014-Sep-11 23:33N 30°03' W 090°31'1 1.2
2014-Sep-11 22:33N 30°03' W 090°32'5 5.1
2014-Sep-11 21:31N 30°03' W 090°38'12 0.4
2014-Sep-10 12:32N 30°04' W 090°52'6 5.7
2014-Sep-10 11:33N 29°59' W 090°49'6 6.3
2014-Sep-10 10:33N 30°01' W 090°42'6 5.7
2014-Sep-10 09:33N 30°03' W 090°36'6 6.1
2014-Sep-10 08:33N 30°02' W 090°29'4 4.3
2014-Sep-10 07:33N 29°59' W 090°25'0 0.2
2014-Sep-10 06:33N 29°59' W 090°25'3 2.9
2014-Sep-10 05:33N 29°57' W 090°23'5 5.1
2014-Sep-10 04:30N 29°58' W 090°17'5 5.0
2014-Sep-10 03:32N 29°55' W 090°12'16 1.4
2014-Sep-09 16:03N 30°03' W 090°29'3 6.1
2014-Sep-09 15:33N 30°03' W 090°32'17 3.4
2014-Sep-09 10:33N 30°04' W 090°52'6 0.2
2014-Sep-08 11:15N 30°08' W 090°56'11 3.0
2014-Sep-08 07:33N 29°59' W 090°49'4 3.8
2014-Sep-08 06:33N 30°01' W 090°45'4 3.8
2014-Sep-08 05:33N 30°02' W 090°41'4 3.6
2014-Sep-08 04:33N 30°02' W 090°37'4 3.7
2014-Sep-08 03:33N 30°03' W 090°33'2 2.4
2014-Sep-08 02:33N 30°03' W 090°30'3 2.5
2014-Sep-08 01:33N 30°01' W 090°28'3 2.8
2014-Sep-08 00:33N 29°60' W 090°26'1 0.5
2014-Sep-07 23:33N 29°59' W 090°25'0 0.1
2014-Sep-07 22:33N 29°59' W 090°25'2 1.6
2014-Sep-07 21:33N 29°58' W 090°24'4 4.2
2014-Sep-07 20:33N 29°56' W 090°20'1 0.2
2014-Sep-07 15:04N 29°57' W 090°19'4 7.6
2014-Sep-07 14:32N 29°57' W 090°23'3 3.2
2014-Sep-07 13:33N 29°59' W 090°25'4 4.1
2014-Sep-07 12:33N 30°02' W 090°28'6 6.4
2014-Sep-07 11:33N 30°03' W 090°36'6 5.7
2014-Sep-07 10:33N 30°02' W 090°42'6 5.6
2014-Sep-07 09:33N 29°59' W 090°48'5 5.2
2014-Sep-07 08:33N 30°04' W 090°52'6 4.6
2014-Sep-07 07:08N 30°07' W 090°58'3 3.1
2014-Sep-07 06:09N 30°07' W 091°02'  

Dump ship's entire track history